PWSweather.com
Personal Weather Stations
Station Observations
SUBOTICARS
SuboticaYU

SuboticaYU

Lat: 46.1296717, Lon: 19.641551

Elevation: 361

Station Type: Nexus

http://sumeteo.info

High Low Average
Temperature 93.5°F34.2°C 60.8°F16.0°C 76.1°F24.5°C
Dew Point 61.5°F16.4°C 46.1°F7.8°C 53.6°F12.0°C
Winds 10.4 mph 16.7 kmh Calm Calm 3.0 mph SSE4.8 kmh SSE
Wind Gusts 11.5 mph18.5 kmh -- 3.0 mph4.8 kmh
Humidity 82% 25% 51%
Pressure 29.62 in1003.0 mb 29.53 in1000.0 mb -
Precipitation 0.00 in0.0 mm - -
Hour Temp Dew Point Humidity Winds Wind Gusts Pressure Precip Precip Rate Daily Precip Total
12:00 AM 63.3°F17.4°C 56.3°F13.5°C 78% Calm Calm -- 29.62 in1003.0 mb - 0.00 in0.0 mm 0.00 in0.0 mm
12:10 AM 63.1°F17.3°C 56.2°F13.4°C 78% Calm Calm -- 29.62 in1003.0 mb - 0.00 in0.0 mm 0.00 in0.0 mm
12:15 AM 63.1°F17.3°C 56.2°F13.4°C 78% Calm Calm -- 29.62 in1003.0 mb - 0.00 in0.0 mm 0.00 in0.0 mm
12:20 AM 63.1°F17.3°C 56.2°F13.4°C 78% Calm Calm -- 29.62 in1003.0 mb - 0.00 in0.0 mm 0.00 in0.0 mm
12:25 AM 63.5°F17.5°C 55.8°F13.2°C 76% 1.2 mph ESE1.9 kmh ESE 3.5 mph5.6 kmh 29.62 in1003.0 mb - 0.00 in0.0 mm 0.00 in0.0 mm
12:30 AM 63.8°F17.7°C 56.4°F13.6°C 77% 1.2 mph E1.9 kmh E 1.2 mph1.9 kmh 29.62 in1003.0 mb - 0.00 in0.0 mm 0.00 in0.0 mm
12:35 AM 64.1°F17.8°C 56.4°F13.6°C 76% Calm Calm -- 29.62 in1003.0 mb - 0.00 in0.0 mm 0.00 in0.0 mm
12:40 AM 64.2°F17.9°C 56.5°F13.6°C 76% Calm Calm -- 29.62 in1003.0 mb - 0.00 in0.0 mm 0.00 in0.0 mm
12:45 AM 64.2°F17.9°C 57.2°F14.0°C 78% Calm Calm -- 29.62 in1003.0 mb - 0.00 in0.0 mm 0.00 in0.0 mm
12:50 AM 64.0°F17.8°C 57.0°F13.9°C 78% Calm Calm -- 29.62 in1003.0 mb - 0.00 in0.0 mm 0.00 in0.0 mm
12:55 AM 63.9°F17.7°C 56.9°F13.8°C 78% Calm Calm -- 29.62 in1003.0 mb - 0.00 in0.0 mm 0.00 in0.0 mm
01:00 AM 63.8°F17.7°C 56.8°F13.8°C 78% Calm Calm -- 29.62 in1003.0 mb - 0.00 in0.0 mm 0.00 in0.0 mm
01:10 AM 63.7°F17.6°C 56.7°F13.7°C 78% Calm Calm -- 29.62 in1003.0 mb - 0.00 in0.0 mm 0.00 in0.0 mm
01:15 AM 63.5°F17.5°C 56.5°F13.6°C 78% Calm Calm -- 29.61 in1002.7 mb - 0.00 in0.0 mm 0.00 in0.0 mm
01:20 AM 63.5°F17.5°C 56.5°F13.6°C 78% Calm Calm -- 29.61 in1002.7 mb - 0.00 in0.0 mm 0.00 in0.0 mm
01:25 AM 63.1°F17.3°C 56.2°F13.4°C 78% Calm Calm -- 29.61 in1002.7 mb - 0.00 in0.0 mm 0.00 in0.0 mm
01:30 AM 63.0°F17.2°C 56.3°F13.5°C 79% Calm Calm -- 29.61 in1002.7 mb - 0.00 in0.0 mm 0.00 in0.0 mm
01:35 AM 63.0°F17.2°C 56.3°F13.5°C 79% Calm Calm -- 29.61 in1002.7 mb - 0.00 in0.0 mm 0.00 in0.0 mm
01:40 AM 62.8°F17.1°C 56.2°F13.4°C 79% Calm Calm -- 29.61 in1002.7 mb - 0.00 in0.0 mm 0.00 in0.0 mm
01:45 AM 62.6°F17.0°C 56.0°F13.3°C 79% Calm Calm -- 29.61 in1002.7 mb - 0.00 in0.0 mm 0.00 in0.0 mm
01:50 AM 62.4°F16.9°C 56.2°F13.4°C 80% Calm Calm -- 29.61 in1002.7 mb - 0.00 in0.0 mm 0.00 in0.0 mm
01:55 AM 62.4°F16.9°C 56.2°F13.4°C 80% Calm Calm -- 29.61 in1002.7 mb - 0.00 in0.0 mm 0.00 in0.0 mm
02:00 AM 62.2°F16.8°C 56.0°F13.3°C 80% Calm Calm -- 29.61 in1002.7 mb - 0.00 in0.0 mm 0.00 in0.0 mm
02:10 AM 62.1°F16.7°C 56.2°F13.4°C 81% Calm Calm -- 29.61 in1002.7 mb - 0.00 in0.0 mm 0.00 in0.0 mm
02:15 AM 62.1°F16.7°C 56.2°F13.4°C 81% Calm Calm -- 29.60 in1002.4 mb - 0.00 in0.0 mm 0.00 in0.0 mm
02:20 AM 61.9°F16.6°C 56.0°F13.3°C 81% Calm Calm -- 29.60 in1002.4 mb - 0.00 in0.0 mm 0.00 in0.0 mm
02:25 AM 61.9°F16.6°C 56.0°F13.3°C 81% Calm Calm -- 29.60 in1002.4 mb - 0.00 in0.0 mm 0.00 in0.0 mm
02:30 AM 61.8°F16.6°C 55.9°F13.3°C 81% Calm Calm -- 29.60 in1002.4 mb - 0.00 in0.0 mm 0.00 in0.0 mm
02:35 AM 61.7°F16.5°C 55.8°F13.2°C 81% Calm Calm -- 29.60 in1002.4 mb - 0.00 in0.0 mm 0.00 in0.0 mm
02:40 AM 61.7°F16.5°C 55.8°F13.2°C 81% Calm Calm -- 29.60 in1002.4 mb - 0.00 in0.0 mm 0.00 in0.0 mm
02:45 AM 61.5°F16.4°C 55.6°F13.1°C 81% Calm Calm -- 29.61 in1002.7 mb - 0.00 in0.0 mm 0.00 in0.0 mm
02:50 AM 61.3°F16.3°C 55.5°F13.1°C 81% Calm Calm -- 29.61 in1002.7 mb - 0.00 in0.0 mm 0.00 in0.0 mm
02:55 AM 61.3°F16.3°C 55.5°F13.1°C 81% Calm Calm -- 29.61 in1002.7 mb - 0.00 in0.0 mm 0.00 in0.0 mm
03:00 AM 61.3°F16.3°C 55.4°F13.0°C 81% Calm Calm -- 29.60 in1002.4 mb - 0.00 in0.0 mm 0.00 in0.0 mm
03:10 AM 61.9°F16.6°C 56.0°F13.3°C 81% 1.2 mph ESE1.9 kmh ESE 1.2 mph1.9 kmh 29.60 in1002.4 mb - 0.00 in0.0 mm 0.00 in0.0 mm
03:15 AM 62.1°F16.7°C 56.2°F13.4°C 81% Calm Calm -- 29.60 in1002.4 mb - 0.00 in0.0 mm 0.00 in0.0 mm
03:20 AM 62.1°F16.7°C 56.2°F13.4°C 81% Calm Calm -- 29.60 in1002.4 mb - 0.00 in0.0 mm 0.00 in0.0 mm
03:25 AM 62.1°F16.7°C 56.2°F13.4°C 81% Calm Calm 1.2 mph1.9 kmh 29.60 in1002.4 mb - 0.00 in0.0 mm 0.00 in0.0 mm
03:30 AM 62.1°F16.7°C 56.2°F13.4°C 81% Calm Calm -- 29.60 in1002.4 mb - 0.00 in0.0 mm 0.00 in0.0 mm
03:35 AM 62.1°F16.7°C 56.2°F13.4°C 81% Calm Calm -- 29.60 in1002.4 mb - 0.00 in0.0 mm 0.00 in0.0 mm
03:40 AM 61.9°F16.6°C 56.0°F13.3°C 81% Calm Calm -- 29.60 in1002.4 mb - 0.00 in0.0 mm 0.00 in0.0 mm
03:45 AM 61.9°F16.6°C 56.0°F13.3°C 81% Calm Calm -- 29.60 in1002.4 mb - 0.00 in0.0 mm 0.00 in0.0 mm
03:50 AM 61.9°F16.6°C 56.3°F13.5°C 82% Calm Calm -- 29.60 in1002.4 mb - 0.00 in0.0 mm 0.00 in0.0 mm
03:55 AM 61.9°F16.6°C 56.3°F13.5°C 82% Calm Calm -- 29.60 in1002.4 mb - 0.00 in0.0 mm 0.00 in0.0 mm
04:00 AM 61.9°F16.6°C 56.4°F13.6°C 82% Calm Calm -- 29.60 in1002.4 mb - 0.00 in0.0 mm 0.00 in0.0 mm
04:10 AM 62.2°F16.8°C 56.7°F13.7°C 82% 1.2 mph ESE1.9 kmh ESE 2.3 mph3.7 kmh 29.60 in1002.4 mb - 0.00 in0.0 mm 0.00 in0.0 mm
04:15 AM 62.6°F17.0°C 56.7°F13.7°C 81% 1.2 mph ESE1.9 kmh ESE 2.3 mph3.7 kmh 29.60 in1002.4 mb - 0.00 in0.0 mm 0.00 in0.0 mm
04:20 AM 62.4°F16.9°C 56.5°F13.6°C 81% 2.3 mph ESE3.7 kmh ESE 3.5 mph5.6 kmh 29.60 in1002.4 mb - 0.00 in0.0 mm 0.00 in0.0 mm
04:25 AM 62.4°F16.9°C 56.5°F13.6°C 81% Calm Calm -- 29.60 in1002.4 mb - 0.00 in0.0 mm 0.00 in0.0 mm
04:30 AM 62.4°F16.9°C 56.5°F13.6°C 81% Calm Calm -- 29.60 in1002.4 mb - 0.00 in0.0 mm 0.00 in0.0 mm
04:35 AM 62.4°F16.9°C 56.5°F13.6°C 81% Calm Calm -- 29.60 in1002.4 mb - 0.00 in0.0 mm 0.00 in0.0 mm
04:40 AM 62.4°F16.9°C 56.5°F13.6°C 81% Calm Calm -- 29.60 in1002.4 mb - 0.00 in0.0 mm 0.00 in0.0 mm
04:45 AM 62.2°F16.8°C 56.3°F13.5°C 81% Calm Calm -- 29.59 in1002.0 mb - 0.00 in0.0 mm 0.00 in0.0 mm
04:50 AM 62.1°F16.7°C 56.2°F13.4°C 81% Calm Calm -- 29.59 in1002.0 mb - 0.00 in0.0 mm 0.00 in0.0 mm
04:55 AM 61.9°F16.6°C 56.0°F13.3°C 81% Calm Calm -- 29.59 in1002.0 mb - 0.00 in0.0 mm 0.00 in0.0 mm
05:00 AM 62.1°F16.7°C 56.2°F13.4°C 81% Calm Calm -- 29.60 in1002.4 mb - 0.00 in0.0 mm 0.00 in0.0 mm
05:10 AM 62.1°F16.7°C 56.2°F13.4°C 81% Calm Calm -- 29.60 in1002.4 mb - 0.00 in0.0 mm 0.00 in0.0 mm
05:15 AM 61.9°F16.6°C 56.0°F13.3°C 81% Calm Calm -- 29.60 in1002.4 mb - 0.00 in0.0 mm 0.00 in0.0 mm
05:20 AM 61.9°F16.6°C 56.0°F13.3°C 81% Calm Calm -- 29.60 in1002.4 mb - 0.00 in0.0 mm 0.00 in0.0 mm
05:25 AM 61.9°F16.6°C 56.0°F13.3°C 81% Calm Calm -- 29.60 in1002.4 mb - 0.00 in0.0 mm 0.00 in0.0 mm
05:30 AM 61.9°F16.6°C 56.0°F13.3°C 81% 1.2 mph NNE1.9 kmh NNE -- 29.60 in1002.4 mb - 0.00 in0.0 mm 0.00 in0.0 mm
05:35 AM 61.9°F16.6°C 56.0°F13.3°C 81% Calm Calm -- 29.60 in1002.4 mb - 0.00 in0.0 mm 0.00 in0.0 mm
05:40 AM 62.1°F16.7°C 56.2°F13.4°C 81% Calm Calm 2.3 mph3.7 kmh 29.60 in1002.4 mb - 0.00 in0.0 mm 0.00 in0.0 mm
05:45 AM 62.2°F16.8°C 56.3°F13.5°C 81% Calm Calm -- 29.60 in1002.4 mb - 0.00 in0.0 mm 0.00 in0.0 mm
05:50 AM 62.6°F17.0°C 56.3°F13.5°C 80% 2.3 mph ESE3.7 kmh ESE 3.5 mph5.6 kmh 29.60 in1002.4 mb - 0.00 in0.0 mm 0.00 in0.0 mm
05:55 AM 63.0°F17.2°C 56.8°F13.8°C 80% 2.3 mph ESE3.7 kmh ESE 5.8 mph9.3 kmh 29.60 in1002.4 mb - 0.00 in0.0 mm 0.00 in0.0 mm
06:00 AM 63.5°F17.5°C 56.9°F13.8°C 79% 1.2 mph ESE1.9 kmh ESE 3.5 mph5.6 kmh 29.60 in1002.4 mb - 0.00 in0.0 mm 0.00 in0.0 mm
06:10 AM 64.4°F18.0°C 57.7°F14.3°C 79% 1.2 mph ESE1.9 kmh ESE 2.3 mph3.7 kmh 29.60 in1002.4 mb - 0.00 in0.0 mm 0.00 in0.0 mm
06:15 AM 65.1°F18.4°C 58.1°F14.5°C 78% 2.3 mph ESE3.7 kmh ESE 2.3 mph3.7 kmh 29.61 in1002.7 mb - 0.00 in0.0 mm 0.00 in0.0 mm
06:20 AM 65.6°F18.7°C 58.2°F14.6°C 77% 3.5 mph SSE5.6 kmh SSE 3.5 mph5.6 kmh 29.61 in1002.7 mb - 0.00 in0.0 mm 0.00 in0.0 mm
06:25 AM 66.2°F19.0°C 58.4°F14.7°C 76% 3.5 mph SE5.6 kmh SE 4.6 mph7.4 kmh 29.61 in1002.7 mb - 0.00 in0.0 mm 0.00 in0.0 mm
06:30 AM 66.9°F19.4°C 58.4°F14.7°C 74% 3.5 mph SE5.6 kmh SE 4.6 mph7.4 kmh 29.61 in1002.7 mb - 0.00 in0.0 mm 0.00 in0.0 mm
06:35 AM 67.6°F19.8°C 58.7°F14.8°C 73% 3.5 mph S5.6 kmh S 4.6 mph7.4 kmh 29.61 in1002.7 mb - 0.00 in0.0 mm 0.00 in0.0 mm
06:40 AM 68.4°F20.2°C 58.6°F14.8°C 71% 3.5 mph SE5.6 kmh SE 5.8 mph9.3 kmh 29.61 in1002.7 mb - 0.00 in0.0 mm 0.00 in0.0 mm
06:45 AM 69.0°F20.6°C 59.3°F15.2°C 71% 4.6 mph SE7.4 kmh SE 5.8 mph9.3 kmh 29.59 in1002.0 mb - 0.00 in0.0 mm 0.00 in0.0 mm
06:50 AM 69.6°F20.9°C 59.3°F15.2°C 70% 3.5 mph SE5.6 kmh SE 4.6 mph7.4 kmh 29.59 in1002.0 mb - 0.00 in0.0 mm 0.00 in0.0 mm
06:55 AM 70.0°F21.1°C 59.4°F15.2°C 69% 3.5 mph SSE5.6 kmh SSE 5.8 mph9.3 kmh 29.59 in1002.0 mb - 0.00 in0.0 mm 0.00 in0.0 mm
07:00 AM 70.5°F21.4°C 59.5°F15.3°C 68% 2.3 mph S3.7 kmh S 3.5 mph5.6 kmh 29.60 in1002.4 mb - 0.00 in0.0 mm 0.00 in0.0 mm
07:10 AM 72.0°F22.2°C 59.6°F15.3°C 65% 3.5 mph SE5.6 kmh SE 4.6 mph7.4 kmh 29.60 in1002.4 mb - 0.00 in0.0 mm 0.00 in0.0 mm
07:15 AM 72.5°F22.5°C 60.0°F15.6°C 65% 3.5 mph S5.6 kmh S 3.5 mph5.6 kmh 29.60 in1002.4 mb - 0.00 in0.0 mm 0.00 in0.0 mm
07:20 AM 73.1°F22.8°C 60.2°F15.7°C 64% 2.3 mph SSW3.7 kmh SSW 4.6 mph7.4 kmh 29.60 in1002.4 mb - 0.00 in0.0 mm 0.00 in0.0 mm
07:25 AM 73.6°F23.1°C 60.3°F15.7°C 63% 3.5 mph SSE5.6 kmh SSE 3.5 mph5.6 kmh 29.60 in1002.4 mb - 0.00 in0.0 mm 0.00 in0.0 mm
07:30 AM 74.3°F23.5°C 60.9°F16.1°C 63% 4.6 mph SSW7.4 kmh SSW 4.6 mph7.4 kmh 29.61 in1002.7 mb - 0.00 in0.0 mm 0.00 in0.0 mm
07:35 AM 74.7°F23.7°C 60.3°F15.7°C 61% 4.6 mph S7.4 kmh S 4.6 mph7.4 kmh 29.61 in1002.7 mb - 0.00 in0.0 mm 0.00 in0.0 mm
07:40 AM 75.0°F23.9°C 60.7°F15.9°C 61% 3.5 mph S5.6 kmh S 3.5 mph5.6 kmh 29.61 in1002.7 mb - 0.00 in0.0 mm 0.00 in0.0 mm
07:45 AM 75.7°F24.3°C 60.4°F15.8°C 59% 4.6 mph SSW7.4 kmh SSW 5.8 mph9.3 kmh 29.61 in1002.7 mb - 0.00 in0.0 mm 0.00 in0.0 mm
07:50 AM 76.1°F24.5°C 60.2°F15.7°C 58% 4.6 mph SSE7.4 kmh SSE 4.6 mph7.4 kmh 29.61 in1002.7 mb - 0.00 in0.0 mm 0.00 in0.0 mm
07:55 AM 76.6°F24.8°C 60.2°F15.7°C 57% 3.5 mph SE5.6 kmh SE 5.8 mph9.3 kmh 29.61 in1002.7 mb - 0.00 in0.0 mm 0.00 in0.0 mm
08:00 AM 77.2°F25.1°C 60.3°F15.7°C 56% 3.5 mph SSW5.6 kmh SSW 4.6 mph7.4 kmh 29.62 in1003.0 mb - 0.00 in0.0 mm 0.00 in0.0 mm
08:10 AM 78.4°F25.8°C 60.4°F15.8°C 54% 4.6 mph SSW7.4 kmh SSW 5.8 mph9.3 kmh 29.62 in1003.0 mb - 0.00 in0.0 mm 0.00 in0.0 mm
08:15 AM 79.1°F26.2°C 60.5°F15.8°C 53% 5.8 mph SSW9.3 kmh SSW 6.9 mph11.1 kmh 29.61 in1002.7 mb - 0.00 in0.0 mm 0.00 in0.0 mm
08:20 AM 79.6°F26.4°C 61.0°F16.1°C 53% 4.6 mph SE7.4 kmh SE 9.2 mph14.8 kmh 29.61 in1002.7 mb - 0.00 in0.0 mm 0.00 in0.0 mm
08:25 AM 80.5°F26.9°C 61.2°F16.2°C 52% 3.5 mph SSW5.6 kmh SSW 4.6 mph7.4 kmh 29.61 in1002.7 mb - 0.00 in0.0 mm 0.00 in0.0 mm
08:30 AM 81.0°F27.2°C 61.1°F16.2°C 51% 3.5 mph S5.6 kmh S 4.6 mph7.4 kmh 29.61 in1002.7 mb - 0.00 in0.0 mm 0.00 in0.0 mm
08:35 AM 81.5°F27.5°C 60.5°F15.8°C 49% 5.8 mph S9.3 kmh S 5.8 mph9.3 kmh 29.61 in1002.7 mb - 0.00 in0.0 mm 0.00 in0.0 mm
08:40 AM 82.0°F27.8°C 60.4°F15.8°C 48% 4.6 mph SE7.4 kmh SE 5.8 mph9.3 kmh 29.61 in1002.7 mb - 0.00 in0.0 mm 0.00 in0.0 mm
08:45 AM 82.7°F28.2°C 61.0°F16.1°C 48% 4.6 mph SW7.4 kmh SW 4.6 mph7.4 kmh 29.61 in1002.7 mb - 0.00 in0.0 mm 0.00 in0.0 mm
08:50 AM 83.2°F28.4°C 61.5°F16.4°C 48% 5.8 mph SSE9.3 kmh SSE 8.1 mph13.0 kmh 29.61 in1002.7 mb - 0.00 in0.0 mm 0.00 in0.0 mm
08:55 AM 83.5°F28.6°C 61.1°F16.2°C 47% 4.6 mph S7.4 kmh S 5.8 mph9.3 kmh 29.61 in1002.7 mb - 0.00 in0.0 mm 0.00 in0.0 mm
09:00 AM 84.0°F28.9°C 60.4°F15.8°C 45% 4.6 mph S7.4 kmh S 6.9 mph11.1 kmh 29.61 in1002.7 mb - 0.00 in0.0 mm 0.00 in0.0 mm
09:10 AM 85.3°F29.6°C 59.6°F15.3°C 42% 6.9 mph SSW11.1 kmh SSW 6.9 mph11.1 kmh 29.61 in1002.7 mb - 0.00 in0.0 mm 0.00 in0.0 mm
09:15 AM 85.4°F29.7°C 58.3°F14.6°C 40% 6.9 mph S11.1 kmh S 6.9 mph11.1 kmh 29.61 in1002.7 mb - 0.00 in0.0 mm 0.00 in0.0 mm
09:20 AM 85.8°F29.9°C 59.4°F15.2°C 41% 5.8 mph SSW9.3 kmh SSW 5.8 mph9.3 kmh 29.61 in1002.7 mb - 0.00 in0.0 mm 0.00 in0.0 mm
09:25 AM 86.2°F30.1°C 59.1°F15.1°C 40% 6.9 mph SW11.1 kmh SW 10.4 mph16.7 kmh 29.61 in1002.7 mb - 0.00 in0.0 mm 0.00 in0.0 mm
09:30 AM 86.4°F30.2°C 57.8°F14.3°C 38% 6.9 mph SSW11.1 kmh SSW 11.5 mph18.5 kmh 29.61 in1002.7 mb - 0.00 in0.0 mm 0.00 in0.0 mm
09:35 AM 86.9°F30.5°C 58.2°F14.6°C 38% 5.8 mph SSE9.3 kmh SSE 6.9 mph11.1 kmh 29.61 in1002.7 mb - 0.00 in0.0 mm 0.00 in0.0 mm
09:40 AM 87.1°F30.6°C 56.9°F13.8°C 36% 6.9 mph SW11.1 kmh SW 8.1 mph13.0 kmh 29.61 in1002.7 mb - 0.00 in0.0 mm 0.00 in0.0 mm
09:45 AM 87.6°F30.9°C 57.3°F14.1°C 36% 6.9 mph SSW11.1 kmh SSW 6.9 mph11.1 kmh 29.60 in1002.4 mb - 0.00 in0.0 mm 0.00 in0.0 mm
09:50 AM 88.1°F31.2°C 57.0°F13.9°C 35% 4.6 mph S7.4 kmh S 5.8 mph9.3 kmh 29.60 in1002.4 mb - 0.00 in0.0 mm 0.00 in0.0 mm
09:55 AM 88.0°F31.1°C 56.1°F13.4°C 34% 6.9 mph S11.1 kmh S 10.4 mph16.7 kmh 29.60 in1002.4 mb - 0.00 in0.0 mm 0.00 in0.0 mm
10:00 AM 88.5°F31.4°C 56.6°F13.7°C 34% 4.6 mph SW7.4 kmh SW 5.8 mph9.3 kmh 29.60 in1002.4 mb - 0.00 in0.0 mm 0.00 in0.0 mm
10:10 AM 88.9°F31.6°C 55.2°F12.9°C 32% 6.9 mph S11.1 kmh S 8.1 mph13.0 kmh 29.60 in1002.4 mb - 0.00 in0.0 mm 0.00 in0.0 mm
10:15 AM 89.1°F31.7°C 55.4°F13.0°C 32% 8.1 mph SSE13.0 kmh SSE 8.1 mph13.0 kmh 29.60 in1002.4 mb - 0.00 in0.0 mm 0.00 in0.0 mm
10:20 AM 89.3°F31.8°C 54.7°F12.6°C 31% 5.8 mph SSE9.3 kmh SSE 8.1 mph13.0 kmh 29.60 in1002.4 mb - 0.00 in0.0 mm 0.00 in0.0 mm
10:25 AM 89.4°F31.9°C 55.7°F13.2°C 32% 6.9 mph S11.1 kmh S 9.2 mph14.8 kmh 29.60 in1002.4 mb - 0.00 in0.0 mm 0.00 in0.0 mm
10:30 AM 89.6°F32.0°C 55.0°F12.8°C 31% 8.1 mph SE13.0 kmh SE 10.4 mph16.7 kmh 29.60 in1002.4 mb - 0.00 in0.0 mm 0.00 in0.0 mm
10:35 AM 89.8°F32.1°C 54.2°F12.3°C 30% 6.9 mph SSW11.1 kmh SSW 9.2 mph14.8 kmh 29.60 in1002.4 mb - 0.00 in0.0 mm 0.00 in0.0 mm
10:40 AM 89.8°F32.1°C 54.2°F12.3°C 30% 5.8 mph SW9.3 kmh SW 5.8 mph9.3 kmh 29.60 in1002.4 mb - 0.00 in0.0 mm 0.00 in0.0 mm
10:45 AM 90.2°F32.3°C 54.6°F12.6°C 30% 5.8 mph S9.3 kmh S 8.1 mph13.0 kmh 29.59 in1002.0 mb - 0.00 in0.0 mm 0.00 in0.0 mm
10:50 AM 90.4°F32.4°C 54.7°F12.6°C 30% 5.8 mph S9.3 kmh S 8.1 mph13.0 kmh 29.59 in1002.0 mb - 0.00 in0.0 mm 0.00 in0.0 mm
10:55 AM 90.9°F32.7°C 55.1°F12.8°C 30% 3.5 mph SSW5.6 kmh SSW 5.8 mph9.3 kmh 29.59 in1002.0 mb - 0.00 in0.0 mm 0.00 in0.0 mm
11:00 AM 90.9°F32.7°C 55.1°F12.8°C 30% 8.1 mph S13.0 kmh S 10.4 mph16.7 kmh 29.60 in1002.4 mb - 0.00 in0.0 mm 0.00 in0.0 mm
11:10 AM 91.0°F32.8°C 54.4°F12.4°C 29% 6.9 mph S11.1 kmh S 5.8 mph9.3 kmh 29.60 in1002.4 mb - 0.00 in0.0 mm 0.00 in0.0 mm
11:15 AM 91.2°F32.9°C 54.5°F12.5°C 29% 6.9 mph SE11.1 kmh SE 6.9 mph11.1 kmh 29.60 in1002.4 mb - 0.00 in0.0 mm 0.00 in0.0 mm
11:20 AM 91.2°F32.9°C 54.5°F12.5°C 29% 5.8 mph E9.3 kmh E 8.1 mph13.0 kmh 29.60 in1002.4 mb - 0.00 in0.0 mm 0.00 in0.0 mm
11:25 AM 91.6°F33.1°C 53.9°F12.2°C 28% 3.5 mph S5.6 kmh S 4.6 mph7.4 kmh 29.60 in1002.4 mb - 0.00 in0.0 mm 0.00 in0.0 mm
11:30 AM 91.6°F33.1°C 53.9°F12.2°C 28% 5.8 mph SSW9.3 kmh SSW 9.2 mph14.8 kmh 29.59 in1002.0 mb - 0.00 in0.0 mm 0.00 in0.0 mm
11:35 AM 91.6°F33.1°C 53.9°F12.2°C 28% 4.6 mph S7.4 kmh S 4.6 mph7.4 kmh 29.59 in1002.0 mb - 0.00 in0.0 mm 0.00 in0.0 mm
11:40 AM 91.7°F33.2°C 54.0°F12.2°C 28% 4.6 mph S7.4 kmh S 5.8 mph9.3 kmh 29.59 in1002.0 mb - 0.00 in0.0 mm 0.00 in0.0 mm
11:45 AM 92.1°F33.4°C 54.3°F12.4°C 28% 5.8 mph SSW9.3 kmh SSW 6.9 mph11.1 kmh 29.59 in1002.0 mb - 0.00 in0.0 mm 0.00 in0.0 mm
11:50 AM 92.0°F33.3°C 54.2°F12.3°C 28% 5.8 mph SE9.3 kmh SE 5.8 mph9.3 kmh 29.59 in1002.0 mb - 0.00 in0.0 mm 0.00 in0.0 mm
11:55 AM 92.3°F33.5°C 54.5°F12.5°C 28% 3.5 mph S5.6 kmh S 5.8 mph9.3 kmh 29.59 in1002.0 mb - 0.00 in0.0 mm 0.00 in0.0 mm
12:00 PM 92.7°F33.7°C 54.8°F12.7°C 28% 5.8 mph S9.3 kmh S 8.1 mph13.0 kmh 29.59 in1002.0 mb - 0.00 in0.0 mm 0.00 in0.0 mm
12:10 PM 92.7°F33.7°C 53.8°F12.1°C 27% 8.1 mph SW13.0 kmh SW 9.2 mph14.8 kmh 29.59 in1002.0 mb - 0.00 in0.0 mm 0.00 in0.0 mm
12:15 PM 92.7°F33.7°C 53.8°F12.1°C 27% 5.8 mph S9.3 kmh S 5.8 mph9.3 kmh 29.59 in1002.0 mb - 0.00 in0.0 mm 0.00 in0.0 mm
12:20 PM 92.0°F33.3°C 53.2°F11.8°C 27% 6.9 mph ESE11.1 kmh ESE 4.6 mph7.4 kmh 29.59 in1002.0 mb - 0.00 in0.0 mm 0.00 in0.0 mm
12:25 PM 92.3°F33.5°C 53.5°F11.9°C 27% 4.6 mph E7.4 kmh E 6.9 mph11.1 kmh 29.59 in1002.0 mb - 0.00 in0.0 mm 0.00 in0.0 mm
12:30 PM 92.5°F33.6°C 53.6°F12.0°C 27% 8.1 mph SSE13.0 kmh SSE 8.1 mph13.0 kmh 29.58 in1001.7 mb - 0.00 in0.0 mm 0.00 in0.0 mm
12:35 PM 92.5°F33.6°C 53.6°F12.0°C 27% 4.6 mph SE7.4 kmh SE 6.9 mph11.1 kmh 29.58 in1001.7 mb - 0.00 in0.0 mm 0.00 in0.0 mm
12:40 PM 93.0°F33.9°C 54.1°F12.3°C 27% 9.2 mph SE14.8 kmh SE 11.5 mph18.5 kmh 29.58 in1001.7 mb - 0.00 in0.0 mm 0.00 in0.0 mm
12:45 PM 93.2°F34.0°C 54.3°F12.4°C 27% 6.9 mph S11.1 kmh S 8.1 mph13.0 kmh 29.58 in1001.7 mb - 0.00 in0.0 mm 0.00 in0.0 mm
12:50 PM 92.8°F33.8°C 53.9°F12.2°C 27% 5.8 mph NNW9.3 kmh NNW 5.8 mph9.3 kmh 29.58 in1001.7 mb - 0.00 in0.0 mm 0.00 in0.0 mm
12:55 PM 92.5°F33.6°C 53.6°F12.0°C 27% 5.8 mph ESE9.3 kmh ESE 5.8 mph9.3 kmh 29.58 in1001.7 mb - 0.00 in0.0 mm 0.00 in0.0 mm
01:00 PM 92.8°F33.8°C 53.9°F12.2°C 27% 4.6 mph SSE7.4 kmh SSE 6.9 mph11.1 kmh 29.57 in1001.4 mb - 0.00 in0.0 mm 0.00 in0.0 mm
01:10 PM 93.2°F34.0°C 53.2°F11.8°C 26% 4.6 mph S7.4 kmh S 4.6 mph7.4 kmh 29.57 in1001.4 mb - 0.00 in0.0 mm 0.00 in0.0 mm
01:15 PM 93.0°F33.9°C 53.1°F11.7°C 26% 3.5 mph SE5.6 kmh SE 5.8 mph9.3 kmh 29.57 in1001.4 mb - 0.00 in0.0 mm 0.00 in0.0 mm
01:20 PM 93.0°F33.9°C 53.0°F11.7°C 26% 8.1 mph SSE13.0 kmh SSE 10.4 mph16.7 kmh 29.57 in1001.4 mb - 0.00 in0.0 mm 0.00 in0.0 mm
01:25 PM 93.0°F33.9°C 53.1°F11.7°C 26% 4.6 mph S7.4 kmh S 4.6 mph7.4 kmh 29.57 in1001.4 mb - 0.00 in0.0 mm 0.00 in0.0 mm
01:30 PM 93.2°F34.0°C 53.2°F11.8°C 26% 5.8 mph SE9.3 kmh SE 9.2 mph14.8 kmh 29.56 in1001.0 mb - 0.00 in0.0 mm 0.00 in0.0 mm
01:35 PM 92.7°F33.7°C 52.8°F11.6°C 26% 2.3 mph ESE3.7 kmh ESE 3.5 mph5.6 kmh 29.56 in1001.0 mb - 0.00 in0.0 mm 0.00 in0.0 mm
01:40 PM 92.8°F33.8°C 52.9°F11.6°C 26% 5.8 mph SSE9.3 kmh SSE 8.1 mph13.0 kmh 29.56 in1001.0 mb - 0.00 in0.0 mm 0.00 in0.0 mm
01:45 PM 93.5°F34.2°C 53.4°F11.9°C 26% 5.8 mph SSW9.3 kmh SSW 9.2 mph14.8 kmh 29.57 in1001.4 mb - 0.00 in0.0 mm 0.00 in0.0 mm
01:50 PM 93.2°F34.0°C 53.2°F11.8°C 26% 5.8 mph SSE9.3 kmh SSE 8.1 mph13.0 kmh 29.57 in1001.4 mb - 0.00 in0.0 mm 0.00 in0.0 mm
01:55 PM 93.2°F34.0°C 52.1°F11.2°C 25% 5.8 mph SW9.3 kmh SW 5.8 mph9.3 kmh 29.57 in1001.4 mb - 0.00 in0.0 mm 0.00 in0.0 mm
02:00 PM 92.3°F33.5°C 51.4°F10.8°C 25% 4.6 mph SSW7.4 kmh SSW 5.8 mph9.3 kmh 29.56 in1001.0 mb - 0.00 in0.0 mm 0.00 in0.0 mm
02:10 PM 92.7°F33.7°C 51.7°F10.9°C 25% 2.3 mph SSW3.7 kmh SSW 5.8 mph9.3 kmh 29.56 in1001.0 mb - 0.00 in0.0 mm 0.00 in0.0 mm
02:15 PM 92.8°F33.8°C 51.8°F11.0°C 25% 3.5 mph ESE5.6 kmh ESE 5.8 mph9.3 kmh 29.55 in1000.7 mb - 0.00 in0.0 mm 0.00 in0.0 mm
02:20 PM 92.7°F33.7°C 51.7°F10.9°C 25% 4.6 mph E7.4 kmh E 4.6 mph7.4 kmh 29.55 in1000.7 mb - 0.00 in0.0 mm 0.00 in0.0 mm
02:25 PM 92.8°F33.8°C 51.8°F11.0°C 25% 5.8 mph SSE9.3 kmh SSE 8.1 mph13.0 kmh 29.55 in1000.7 mb - 0.00 in0.0 mm 0.00 in0.0 mm
02:30 PM 92.7°F33.7°C 51.7°F10.9°C 25% 5.8 mph SE9.3 kmh SE 6.9 mph11.1 kmh 29.55 in1000.7 mb - 0.00 in0.0 mm 0.00 in0.0 mm
02:35 PM 92.8°F33.8°C 51.8°F11.0°C 25% 3.5 mph ESE5.6 kmh ESE 9.2 mph14.8 kmh 29.55 in1000.7 mb - 0.00 in0.0 mm 0.00 in0.0 mm
02:40 PM 93.0°F33.9°C 52.0°F11.1°C 25% 5.8 mph S9.3 kmh S 5.8 mph9.3 kmh 29.55 in1000.7 mb - 0.00 in0.0 mm 0.00 in0.0 mm
02:45 PM 92.9°F33.8°C 51.9°F11.1°C 25% 3.5 mph SSW5.6 kmh SSW 3.5 mph5.6 kmh 29.55 in1000.7 mb - 0.00 in0.0 mm 0.00 in0.0 mm
02:50 PM 92.8°F33.8°C 51.8°F11.0°C 25% 4.6 mph SSE7.4 kmh SSE 5.8 mph9.3 kmh 29.55 in1000.7 mb - 0.00 in0.0 mm 0.00 in0.0 mm
02:55 PM 92.7°F33.7°C 51.7°F10.9°C 25% 5.8 mph S9.3 kmh S 6.9 mph11.1 kmh 29.55 in1000.7 mb - 0.00 in0.0 mm 0.00 in0.0 mm
03:00 PM 92.7°F33.7°C 51.7°F10.9°C 25% 5.8 mph SSE9.3 kmh SSE 9.2 mph14.8 kmh 29.55 in1000.7 mb - 0.00 in0.0 mm 0.00 in0.0 mm
03:10 PM 92.7°F33.7°C 51.7°F10.9°C 25% 3.5 mph E5.6 kmh E 5.8 mph9.3 kmh 29.55 in1000.7 mb - 0.00 in0.0 mm 0.00 in0.0 mm
03:15 PM 92.4°F33.6°C 51.5°F10.8°C 25% 4.6 mph SW7.4 kmh SW 3.5 mph5.6 kmh 29.55 in1000.7 mb - 0.00 in0.0 mm 0.00 in0.0 mm
03:20 PM 92.3°F33.5°C 51.4°F10.8°C 25% 4.6 mph ESE7.4 kmh ESE 5.8 mph9.3 kmh 29.55 in1000.7 mb - 0.00 in0.0 mm 0.00 in0.0 mm
03:25 PM 91.9°F33.3°C 51.1°F10.6°C 25% 10.4 mph SSE16.7 kmh SSE 11.5 mph18.5 kmh 29.55 in1000.7 mb - 0.00 in0.0 mm 0.00 in0.0 mm
03:30 PM 91.9°F33.3°C 51.1°F10.6°C 25% 3.5 mph SSW5.6 kmh SSW 4.6 mph7.4 kmh 29.54 in1000.3 mb - 0.00 in0.0 mm 0.00 in0.0 mm
03:35 PM 91.8°F33.2°C 50.9°F10.5°C 25% 5.8 mph S9.3 kmh S 5.8 mph9.3 kmh 29.54 in1000.3 mb - 0.00 in0.0 mm 0.00 in0.0 mm
03:40 PM 91.5°F33.1°C 50.7°F10.4°C 25% 5.8 mph SW9.3 kmh SW 5.8 mph9.3 kmh 29.54 in1000.3 mb - 0.00 in0.0 mm 0.00 in0.0 mm
03:45 PM 91.3°F32.9°C 50.6°F10.3°C 25% 4.6 mph E7.4 kmh E 8.1 mph13.0 kmh 29.54 in1000.3 mb - 0.00 in0.0 mm 0.00 in0.0 mm
03:50 PM 91.4°F33.0°C 50.6°F10.3°C 25% 5.8 mph ESE9.3 kmh ESE 8.1 mph13.0 kmh 29.54 in1000.3 mb - 0.00 in0.0 mm 0.00 in0.0 mm
03:55 PM 91.2°F32.9°C 50.5°F10.3°C 25% 8.1 mph S13.0 kmh S 8.1 mph13.0 kmh 29.54 in1000.3 mb - 0.00 in0.0 mm 0.00 in0.0 mm
04:00 PM 90.9°F32.7°C 50.2°F10.1°C 25% 5.8 mph E9.3 kmh E 5.8 mph9.3 kmh 29.54 in1000.3 mb - 0.00 in0.0 mm 0.00 in0.0 mm
04:10 PM 90.3°F32.4°C 49.7°F9.8°C 25% 4.6 mph SSE7.4 kmh SSE 10.4 mph16.7 kmh 29.54 in1000.3 mb - 0.00 in0.0 mm 0.00 in0.0 mm
04:15 PM 90.0°F32.2°C 49.4°F9.7°C 25% 4.6 mph SE7.4 kmh SE 8.1 mph13.0 kmh 29.54 in1000.3 mb - 0.00 in0.0 mm 0.00 in0.0 mm
04:20 PM 90.0°F32.2°C 49.4°F9.7°C 25% 5.8 mph SE9.3 kmh SE 4.6 mph7.4 kmh 29.54 in1000.3 mb - 0.00 in0.0 mm 0.00 in0.0 mm
04:25 PM 89.6°F32.0°C 49.1°F9.5°C 25% 2.3 mph ENE3.7 kmh ENE 3.5 mph5.6 kmh 29.54 in1000.3 mb - 0.00 in0.0 mm 0.00 in0.0 mm
04:30 PM 89.4°F31.9°C 49.0°F9.4°C 25% 4.6 mph SE7.4 kmh SE 4.6 mph7.4 kmh 29.54 in1000.3 mb - 0.00 in0.0 mm 0.00 in0.0 mm
04:35 PM 89.2°F31.8°C 48.8°F9.3°C 25% 4.6 mph E7.4 kmh E 5.8 mph9.3 kmh 29.54 in1000.3 mb - 0.00 in0.0 mm 0.00 in0.0 mm
04:40 PM 88.9°F31.6°C 48.5°F9.2°C 25% 3.5 mph SE5.6 kmh SE 3.5 mph5.6 kmh 29.54 in1000.3 mb - 0.00 in0.0 mm 0.00 in0.0 mm
04:45 PM 88.7°F31.5°C 48.4°F9.1°C 25% 4.6 mph SE7.4 kmh SE 4.6 mph7.4 kmh 29.54 in1000.3 mb - 0.00 in0.0 mm 0.00 in0.0 mm
04:50 PM 88.5°F31.4°C 48.2°F9.0°C 25% 4.6 mph SSE7.4 kmh SSE 4.6 mph7.4 kmh 29.54 in1000.3 mb - 0.00 in0.0 mm 0.00 in0.0 mm
04:55 PM 88.2°F31.2°C 47.9°F8.8°C 25% 5.8 mph ESE9.3 kmh ESE 5.8 mph9.3 kmh 29.54 in1000.3 mb - 0.00 in0.0 mm 0.00 in0.0 mm
05:00 PM 88.0°F31.1°C 47.7°F8.7°C 25% 4.6 mph SSE7.4 kmh SSE 6.9 mph11.1 kmh 29.53 in1000.0 mb - 0.00 in0.0 mm 0.00 in0.0 mm
05:10 PM 87.4°F30.8°C 47.3°F8.5°C 25% 4.6 mph SE7.4 kmh SE 5.8 mph9.3 kmh 29.53 in1000.0 mb - 0.00 in0.0 mm 0.00 in0.0 mm
05:15 PM 87.1°F30.6°C 47.0°F8.3°C 25% 3.5 mph SE5.6 kmh SE 4.6 mph7.4 kmh 29.54 in1000.3 mb - 0.00 in0.0 mm 0.00 in0.0 mm
05:20 PM 86.9°F30.5°C 46.8°F8.2°C 25% 2.3 mph SSE3.7 kmh SSE 4.6 mph7.4 kmh 29.54 in1000.3 mb - 0.00 in0.0 mm 0.00 in0.0 mm
05:25 PM 86.4°F30.2°C 46.4°F8.0°C 25% 3.5 mph SE5.6 kmh SE 4.6 mph7.4 kmh 29.54 in1000.3 mb - 0.00 in0.0 mm 0.00 in0.0 mm
05:30 PM 86.0°F30.0°C 46.1°F7.8°C 25% 2.3 mph SE3.7 kmh SE 3.5 mph5.6 kmh 29.54 in1000.3 mb - 0.00 in0.0 mm 0.00 in0.0 mm
05:35 PM 85.7°F29.8°C 46.8°F8.2°C 26% 1.2 mph SE1.9 kmh SE 2.3 mph3.7 kmh 29.54 in1000.3 mb - 0.00 in0.0 mm 0.00 in0.0 mm
05:40 PM 85.2°F29.6°C 46.4°F8.0°C 26% 2.3 mph SE3.7 kmh SE 2.3 mph3.7 kmh 29.54 in1000.3 mb - 0.00 in0.0 mm 0.00 in0.0 mm
05:45 PM 84.5°F29.2°C 46.9°F8.3°C 27% Calm Calm -- 29.54 in1000.3 mb - 0.00 in0.0 mm 0.00 in0.0 mm
05:50 PM 83.8°F28.8°C 47.2°F8.4°C 28% Calm Calm -- 29.54 in1000.3 mb - 0.00 in0.0 mm 0.00 in0.0 mm
05:55 PM 82.9°F28.3°C 47.4°F8.6°C 29% Calm Calm -- 29.54 in1000.3 mb - 0.00 in0.0 mm 0.00 in0.0 mm
06:00 PM 82.0°F27.8°C 46.6°F8.1°C 29% Calm Calm 1.2 mph1.9 kmh 29.55 in1000.7 mb - 0.00 in0.0 mm 0.00 in0.0 mm
06:10 PM 80.7°F27.1°C 46.4°F8.0°C 30% Calm Calm -- 29.55 in1000.7 mb - 0.00 in0.0 mm 0.00 in0.0 mm
06:15 PM 79.7°F26.5°C 48.0°F8.9°C 33% Calm Calm -- 29.55 in1000.7 mb - 0.00 in0.0 mm 0.00 in0.0 mm
06:20 PM 79.0°F26.1°C 48.2°F9.0°C 34% Calm Calm -- 29.55 in1000.7 mb - 0.00 in0.0 mm 0.00 in0.0 mm
06:25 PM 78.1°F25.6°C 48.2°F9.0°C 35% Calm Calm -- 29.55 in1000.7 mb - 0.00 in0.0 mm 0.00 in0.0 mm
06:30 PM 77.4°F25.2°C 48.3°F9.1°C 36% Calm Calm -- 29.55 in1000.7 mb - 0.00 in0.0 mm 0.00 in0.0 mm
06:35 PM 76.4°F24.7°C 48.2°F9.0°C 37% Calm Calm -- 29.55 in1000.7 mb - 0.00 in0.0 mm 0.00 in0.0 mm
06:40 PM 75.9°F24.4°C 48.5°F9.2°C 38% Calm Calm -- 29.55 in1000.7 mb - 0.00 in0.0 mm 0.00 in0.0 mm
06:45 PM 75.4°F24.1°C 48.0°F8.9°C 38% Calm Calm -- 29.56 in1001.0 mb - 0.00 in0.0 mm 0.00 in0.0 mm
06:50 PM 75.0°F23.9°C 48.4°F9.1°C 39% Calm Calm -- 29.56 in1001.0 mb - 0.00 in0.0 mm 0.00 in0.0 mm
06:55 PM 74.3°F23.5°C 48.4°F9.1°C 40% Calm Calm -- 29.56 in1001.0 mb - 0.00 in0.0 mm 0.00 in0.0 mm
07:00 PM 73.8°F23.2°C 48.6°F9.2°C 41% Calm Calm -- 29.56 in1001.0 mb - 0.00 in0.0 mm 0.00 in0.0 mm
07:10 PM 72.9°F22.7°C 49.7°F9.8°C 44% Calm Calm -- 29.56 in1001.0 mb - 0.00 in0.0 mm 0.00 in0.0 mm
07:15 PM 72.3°F22.4°C 50.4°F10.2°C 46% Calm Calm -- 29.57 in1001.4 mb - 0.00 in0.0 mm 0.00 in0.0 mm
07:20 PM 71.6°F22.0°C 49.7°F9.8°C 46% Calm Calm -- 29.57 in1001.4 mb - 0.00 in0.0 mm 0.00 in0.0 mm
07:25 PM 71.1°F21.7°C 49.8°F9.9°C 47% Calm Calm -- 29.57 in1001.4 mb - 0.00 in0.0 mm 0.00 in0.0 mm
07:30 PM 70.5°F21.4°C 49.3°F9.6°C 47% Calm Calm -- 29.57 in1001.4 mb - 0.00 in0.0 mm 0.00 in0.0 mm
07:35 PM 70.2°F21.2°C 49.6°F9.8°C 48% Calm Calm -- 29.57 in1001.4 mb - 0.00 in0.0 mm 0.00 in0.0 mm
07:40 PM 69.7°F20.9°C 49.1°F9.5°C 48% Calm Calm -- 29.57 in1001.4 mb - 0.00 in0.0 mm 0.00 in0.0 mm
07:45 PM 69.2°F20.7°C 49.3°F9.6°C 49% Calm Calm -- 29.57 in1001.4 mb - 0.00 in0.0 mm 0.00 in0.0 mm
07:50 PM 68.9°F20.5°C 49.5°F9.7°C 50% Calm Calm -- 29.57 in1001.4 mb - 0.00 in0.0 mm 0.00 in0.0 mm
07:55 PM 68.7°F20.4°C 49.9°F9.9°C 51% Calm Calm -- 29.57 in1001.4 mb - 0.00 in0.0 mm 0.00 in0.0 mm
08:00 PM 68.6°F20.3°C 50.2°F10.1°C 52% Calm Calm -- 29.57 in1001.4 mb - 0.00 in0.0 mm 0.00 in0.0 mm
08:10 PM 67.6°F19.8°C 49.4°F9.7°C 52% Calm Calm -- 29.57 in1001.4 mb - 0.00 in0.0 mm 0.00 in0.0 mm
08:15 PM 67.5°F19.7°C 49.7°F9.8°C 53% Calm Calm -- 29.57 in1001.4 mb - 0.00 in0.0 mm 0.00 in0.0 mm
08:20 PM 67.3°F19.6°C 49.6°F9.8°C 53% Calm Calm -- 29.57 in1001.4 mb - 0.00 in0.0 mm 0.00 in0.0 mm
08:25 PM 67.1°F19.5°C 50.4°F10.2°C 55% Calm Calm -- 29.57 in1001.4 mb - 0.00 in0.0 mm 0.00 in0.0 mm
08:30 PM 66.9°F19.4°C 50.7°F10.4°C 56% Calm Calm -- 29.58 in1001.7 mb - 0.00 in0.0 mm 0.00 in0.0 mm
08:35 PM 66.5°F19.2°C 50.3°F10.2°C 56% Calm Calm -- 29.58 in1001.7 mb - 0.00 in0.0 mm 0.00 in0.0 mm
08:40 PM 66.1°F18.9°C 50.5°F10.3°C 57% Calm Calm -- 29.58 in1001.7 mb - 0.00 in0.0 mm 0.00 in0.0 mm
08:45 PM 65.8°F18.8°C 50.6°F10.3°C 58% Calm Calm -- 29.57 in1001.4 mb - 0.00 in0.0 mm 0.00 in0.0 mm
08:50 PM 65.8°F18.8°C 51.1°F10.6°C 59% Calm Calm -- 29.57 in1001.4 mb - 0.00 in0.0 mm 0.00 in0.0 mm
08:55 PM 65.5°F18.6°C 50.8°F10.4°C 59% Calm Calm -- 29.57 in1001.4 mb - 0.00 in0.0 mm 0.00 in0.0 mm
09:00 PM 65.1°F18.4°C 50.4°F10.2°C 59% Calm Calm -- 29.58 in1001.7 mb - 0.00 in0.0 mm 0.00 in0.0 mm
09:10 PM 64.8°F18.2°C 50.5°F10.3°C 60% Calm Calm -- 29.58 in1001.7 mb - 0.00 in0.0 mm 0.00 in0.0 mm
09:15 PM 64.6°F18.1°C 50.4°F10.2°C 60% Calm Calm -- 29.58 in1001.7 mb - 0.00 in0.0 mm 0.00 in0.0 mm
09:20 PM 64.2°F17.9°C 50.5°F10.3°C 61% Calm Calm -- 29.58 in1001.7 mb - 0.00 in0.0 mm 0.00 in0.0 mm
09:25 PM 64.0°F17.8°C 50.3°F10.2°C 61% Calm Calm -- 29.58 in1001.7 mb - 0.00 in0.0 mm 0.00 in0.0 mm
09:30 PM 63.9°F17.7°C 50.6°F10.3°C 62% Calm Calm -- 29.58 in1001.7 mb - 0.00 in0.0 mm 0.00 in0.0 mm
09:35 PM 63.7°F17.6°C 50.4°F10.2°C 62% Calm Calm -- 29.58 in1001.7 mb - 0.00 in0.0 mm 0.00 in0.0 mm
09:40 PM 63.5°F17.5°C 50.2°F10.1°C 62% Calm Calm -- 29.58 in1001.7 mb - 0.00 in0.0 mm 0.00 in0.0 mm
09:45 PM 63.3°F17.4°C 50.5°F10.3°C 63% Calm Calm -- 29.58 in1001.7 mb - 0.00 in0.0 mm 0.00 in0.0 mm
09:50 PM 63.1°F17.3°C 50.8°F10.4°C 64% Calm Calm -- 29.58 in1001.7 mb - 0.00 in0.0 mm 0.00 in0.0 mm
09:55 PM 63.0°F17.2°C 50.6°F10.3°C 64% Calm Calm -- 29.58 in1001.7 mb - 0.00 in0.0 mm 0.00 in0.0 mm
10:00 PM 62.6°F17.0°C 50.3°F10.2°C 64% Calm Calm -- 29.58 in1001.7 mb - 0.00 in0.0 mm 0.00 in0.0 mm
10:10 PM 62.2°F16.8°C 51.1°F10.6°C 67% Calm Calm -- 29.58 in1001.7 mb - 0.00 in0.0 mm 0.00 in0.0 mm
10:15 PM 62.1°F16.7°C 51.0°F10.6°C 67% Calm Calm -- 29.57 in1001.4 mb - 0.00 in0.0 mm 0.00 in0.0 mm
10:20 PM 61.9°F16.6°C 50.8°F10.4°C 67% Calm Calm -- 29.57 in1001.4 mb - 0.00 in0.0 mm 0.00 in0.0 mm
10:25 PM 61.7°F16.5°C 51.0°F10.6°C 68% Calm Calm -- 29.57 in1001.4 mb - 0.00 in0.0 mm 0.00 in0.0 mm
10:30 PM 61.6°F16.4°C 50.9°F10.5°C 68% Calm Calm -- 29.58 in1001.7 mb - 0.00 in0.0 mm 0.00 in0.0 mm
10:35 PM 61.3°F16.3°C 50.7°F10.4°C 68% Calm Calm -- 29.58 in1001.7 mb - 0.00 in0.0 mm 0.00 in0.0 mm
10:40 PM 61.2°F16.2°C 50.5°F10.3°C 68% Calm Calm -- 29.58 in1001.7 mb - 0.00 in0.0 mm 0.00 in0.0 mm
10:45 PM 61.2°F16.2°C 50.5°F10.3°C 68% 2.3 mph S3.7 kmh S 2.3 mph3.7 kmh 29.58 in1001.7 mb - 0.00 in0.0 mm 0.00 in0.0 mm
10:50 PM 61.0°F16.1°C 50.7°F10.4°C 69% Calm Calm -- 29.58 in1001.7 mb - 0.00 in0.0 mm 0.00 in0.0 mm
10:55 PM 61.0°F16.1°C 50.7°F10.4°C 69% Calm Calm -- 29.58 in1001.7 mb - 0.00 in0.0 mm 0.00 in0.0 mm
11:00 PM 61.0°F16.1°C 50.7°F10.4°C 69% Calm Calm -- 29.59 in1002.0 mb - 0.00 in0.0 mm 0.00 in0.0 mm
11:10 PM 60.8°F16.0°C 50.6°F10.3°C 69% Calm Calm -- 29.59 in1002.0 mb - 0.00 in0.0 mm 0.00 in0.0 mm
11:15 PM 60.8°F16.0°C 50.6°F10.3°C 69% 1.2 mph SSE1.9 kmh SSE 1.2 mph1.9 kmh 29.58 in1001.7 mb - 0.00 in0.0 mm 0.00 in0.0 mm
11:20 PM 60.8°F16.0°C 50.6°F10.3°C 69% Calm Calm -- 29.58 in1001.7 mb - 0.00 in0.0 mm 0.00 in0.0 mm
11:25 PM 61.0°F16.1°C 50.7°F10.4°C 69% 1.2 mph SSE1.9 kmh SSE 2.3 mph3.7 kmh 29.58 in1001.7 mb - 0.00 in0.0 mm 0.00 in0.0 mm
11:35 PM 61.1°F16.2°C 50.4°F10.2°C 68% Calm Calm -- 29.58 in1001.7 mb - 0.00 in0.0 mm 0.00 in0.0 mm
11:40 PM 61.2°F16.2°C 51.3°F10.7°C 70% Calm Calm -- 29.58 in1001.7 mb - 0.00 in0.0 mm 0.00 in0.0 mm
11:45 PM 61.0°F16.1°C 51.1°F10.6°C 70% Calm Calm -- 29.59 in1002.0 mb - 0.00 in0.0 mm 0.00 in0.0 mm
11:50 PM 60.8°F16.0°C 51.0°F10.6°C 70% Calm Calm -- 29.59 in1002.0 mb - 0.00 in0.0 mm 0.00 in0.0 mm